METAR Data
IDs: Format: Raw Decoded Include TAF

Data at: 2156 UTC 22 Sep 2020

METAR for:KRSP (Camp David(HEL), MD, US)
Text:KRSP 222154Z AUTO VRB06KT 10SM CLR 17/03 A3005 RMK AO2 SLP181 T01720028 PWINO $
Temperature: 17.2°C ( 63°F)
Dewpoint: 2.8°C ( 37°F) [RH = 38%]
Pressure (altimeter):30.05 inches Hg (1017.7 mb) [Sea level pressure: 1018.1 mb]
Winds:variable direction winds at 7 MPH (6 knots; 3.1 m/s)
Visibility:10 or more sm (16+ km)
Ceiling:at least 12,000 feet AGL
Clouds:sky clear below 12,000 feet AGL
QC Flag:automated observation with no human augmentation; SOME DATA ABOVE MAY BE INACCURATE!!!"$" is an indication the sensor requires maintenance.